createdAt,value
2022-08-14T00:02:19.074Z,19.15
2022-08-14T00:04:47.678Z,19.34
2022-08-14T00:07:16.346Z,18.99
2022-08-14T00:10:02.518Z,18.95
2022-08-14T00:12:39.128Z,18.76
2022-08-14T00:15:21.936Z,19.01
2022-08-14T00:17:53.629Z,19.01
2022-08-14T00:20:35.842Z,18.57
2022-08-14T00:23:16.641Z,18.36
2022-08-14T00:25:54.095Z,18.25
2022-08-14T00:28:36.917Z,18.43
2022-08-14T00:31:09.600Z,18.25
2022-08-14T00:33:51.468Z,18.41
2022-08-14T00:36:36.387Z,18.41
2022-08-14T00:39:17.969Z,18.38
2022-08-14T00:41:47.541Z,18.12
2022-08-14T00:44:26.676Z,18.17
2022-08-14T00:47:03.862Z,18.29
2022-08-14T00:49:37.847Z,17.81
2022-08-14T00:52:14.236Z,17.95
2022-08-14T00:54:53.082Z,17.97
2022-08-14T00:57:28.427Z,18.05
2022-08-14T00:59:58.477Z,18.09
2022-08-14T01:02:31.948Z,17.92
2022-08-14T01:05:02.915Z,17.93
2022-08-14T01:07:38.589Z,17.91
2022-08-14T01:10:16.891Z,17.99
2022-08-14T01:12:47.897Z,18.03
2022-08-14T01:15:31.775Z,18.03
2022-08-14T01:18:29.343Z,17.99
2022-08-14T01:21:07.198Z,17.67
2022-08-14T01:23:46.690Z,17.94
2022-08-14T01:26:23.527Z,17.96
2022-08-14T01:29:06.872Z,17.77
2022-08-14T01:31:42.687Z,17.65
2022-08-14T01:35:19.978Z,17.54
2022-08-14T01:37:03.105Z,17.02
2022-08-14T01:39:38.205Z,17.17
2022-08-14T01:42:07.124Z,17.16
2022-08-14T01:44:41.316Z,17.23
2022-08-14T01:47:21.840Z,17.17
2022-08-14T01:49:59.745Z,16.98
2022-08-14T01:52:58.760Z,17.02
2022-08-14T01:55:30.740Z,17.05
2022-08-14T01:58:18.107Z,16.93
2022-08-14T02:00:48.412Z,17.08
2022-08-14T02:03:17.966Z,17.03
2022-08-14T02:05:47.085Z,16.79
2022-08-14T02:08:16.031Z,16.73
2022-08-14T02:11:16.053Z,16.92
2022-08-14T02:13:50.558Z,16.91
2022-08-14T02:16:26.249Z,16.96
2022-08-14T02:18:56.858Z,16.99
2022-08-14T02:21:27.807Z,16.82
2022-08-14T02:23:57.533Z,16.56
2022-08-14T02:26:30.968Z,16.51
2022-08-14T02:29:03.449Z,16.59
2022-08-14T02:31:43.226Z,16.63
2022-08-14T02:34:22.162Z,16.71
2022-08-14T02:37:03.741Z,16.45
2022-08-14T02:39:37.673Z,16.39
2022-08-14T02:42:13.114Z,16.42
2022-08-14T02:44:49.418Z,16.45
2022-08-14T02:47:20.952Z,16.22
2022-08-14T02:49:54.799Z,16.52
2022-08-14T02:52:57.460Z,16.31
2022-08-14T02:55:20.099Z,16.57
2022-08-14T02:58:03.209Z,16.59
2022-08-14T03:00:39.689Z,16.59
2022-08-14T03:03:09.143Z,16.45
2022-08-14T03:05:41.136Z,16.50
2022-08-14T03:08:16.015Z,16.52
2022-08-14T03:10:49.242Z,16.47
2022-08-14T03:13:21.603Z,16.52
2022-08-14T03:15:56.085Z,16.43
2022-08-14T03:18:30.904Z,16.24
2022-08-14T03:21:02.557Z,16.26
2022-08-14T03:23:37.858Z,16.21
2022-08-14T03:26:13.135Z,16.10
2022-08-14T03:28:51.290Z,16.04
2022-08-14T03:31:26.019Z,16.06
2022-08-14T03:34:00.137Z,15.93
2022-08-14T03:37:37.816Z,15.87
2022-08-14T03:39:24.177Z,15.98
2022-08-14T03:41:59.807Z,15.98
2022-08-14T03:45:19.717Z,16.06
2022-08-14T03:47:21.044Z,15.91
2022-08-14T03:49:50.415Z,15.73
2022-08-14T03:52:55.573Z,15.69
2022-08-14T03:55:12.464Z,15.57
2022-08-14T03:57:41.539Z,15.43
2022-08-14T04:00:42.730Z,15.60
2022-08-14T04:03:04.880Z,15.48
2022-08-14T04:05:38.110Z,15.65
2022-08-14T04:08:29.293Z,15.38
2022-08-14T04:11:01.238Z,15.45
2022-08-14T04:13:31.862Z,15.15
2022-08-14T04:16:12.350Z,14.97
2022-08-14T04:18:42.483Z,15.16
2022-08-14T04:21:12.077Z,15.21
2022-08-14T04:23:40.918Z,15.47
2022-08-14T04:26:14.983Z,15.35
2022-08-14T04:29:08.054Z,15.32
2022-08-14T04:33:10.596Z,15.51
2022-08-14T04:34:33.979Z,15.66
2022-08-14T04:37:24.713Z,15.59
2022-08-14T04:40:13.218Z,15.58
2022-08-14T04:43:01.525Z,15.43
2022-08-14T04:45:37.431Z,15.64
2022-08-14T04:48:36.614Z,15.55
2022-08-14T04:51:06.765Z,15.56
2022-08-14T04:53:40.871Z,15.51
2022-08-14T04:56:31.099Z,15.38
2022-08-14T04:59:10.360Z,15.41
2022-08-14T05:01:48.714Z,15.03
2022-08-14T05:04:21.814Z,15.22
2022-08-14T05:06:54.275Z,15.13
2022-08-14T05:09:29.152Z,15.13
2022-08-14T05:13:10.701Z,15.11
2022-08-14T05:14:54.877Z,15.22
2022-08-14T05:17:32.116Z,15.25
2022-08-14T05:21:55.311Z,15.19
2022-08-14T05:23:03.687Z,15.62
2022-08-14T05:25:34.266Z,15.67
2022-08-14T05:28:12.526Z,15.81
2022-08-14T05:30:46.489Z,15.77
2022-08-14T05:33:16.378Z,16.02
2022-08-14T05:35:46.811Z,16.13
2022-08-14T05:38:31.330Z,15.68
2022-08-14T05:41:01.554Z,15.99
2022-08-14T05:43:40.994Z,15.97
2022-08-14T05:46:15.130Z,16.07
2022-08-14T05:48:44.171Z,16.11
2022-08-14T05:51:15.457Z,16.25
2022-08-14T05:53:59.984Z,16.24
2022-08-14T05:56:33.094Z,16.36
2022-08-14T05:59:07.386Z,16.20
2022-08-14T06:01:36.356Z,16.20
2022-08-14T06:04:05.464Z,16.24
2022-08-14T06:06:38.650Z,16.61
2022-08-14T06:09:09.907Z,16.41
2022-08-14T06:11:39.096Z,16.82
2022-08-14T06:14:20.606Z,16.87
2022-08-14T06:16:52.947Z,16.43
2022-08-14T06:19:23.248Z,16.31
2022-08-14T06:21:59.325Z,16.91
2022-08-14T06:24:30.777Z,17.65
2022-08-14T06:27:06.165Z,17.80
2022-08-14T06:29:38.764Z,17.72
2022-08-14T06:32:37.328Z,17.91
2022-08-14T06:35:02.140Z,18.75
2022-08-14T06:37:43.951Z,19.54
2022-08-14T06:40:25.715Z,19.22
2022-08-14T06:43:00.045Z,19.59
2022-08-14T06:45:29.587Z,20.65
2022-08-14T06:47:58.766Z,21.61
2022-08-14T06:50:30.204Z,22.05
2022-08-14T06:53:00.550Z,22.09
2022-08-14T06:55:29.422Z,23.85
2022-08-14T06:57:58.484Z,24.89
2022-08-14T07:00:31.087Z,26.48
2022-08-14T07:03:17.617Z,27.05
2022-08-14T07:05:55.529Z,28.00
2022-08-14T07:08:32.076Z,27.81
2022-08-14T07:11:04.132Z,27.50
2022-08-14T07:13:32.934Z,28.74
2022-08-14T07:16:05.501Z,28.58
2022-08-14T07:18:36.420Z,27.30
2022-08-14T07:21:07.313Z,26.36
2022-08-14T07:23:40.183Z,24.83
2022-08-14T07:26:13.705Z,23.69
2022-08-14T07:28:44.101Z,24.82
2022-08-14T07:31:13.875Z,25.04
2022-08-14T07:33:50.138Z,25.98
2022-08-14T07:36:27.480Z,27.62
2022-08-14T07:39:03.085Z,28.54
2022-08-14T07:41:42.409Z,30.04
2022-08-14T07:44:29.348Z,31.53
2022-08-14T07:47:00.881Z,33.90
2022-08-14T07:49:30.148Z,34.45
2022-08-14T07:52:00.167Z,34.33
2022-08-14T07:54:31.786Z,35.46
2022-08-14T07:57:06.263Z,33.44
2022-08-14T07:59:44.505Z,33.70
2022-08-14T08:02:20.368Z,32.17
2022-08-14T08:04:53.084Z,33.14
2022-08-14T08:07:23.957Z,31.94
2022-08-14T08:09:57.250Z,32.23
2022-08-14T08:12:31.129Z,33.65
2022-08-14T08:15:03.176Z,35.20
2022-08-14T08:17:42.766Z,35.72
2022-08-14T08:20:27.216Z,36.58
2022-08-14T08:23:00.636Z,38.28
2022-08-14T08:25:39.838Z,39.06
2022-08-14T08:28:25.113Z,39.23
2022-08-14T08:30:56.783Z,39.32
2022-08-14T08:33:32.093Z,38.49
2022-08-14T08:36:12.467Z,39.17
2022-08-14T08:39:17.303Z,39.78
2022-08-14T08:41:43.345Z,40.20
2022-08-14T08:44:31.146Z,37.41
2022-08-14T08:47:05.783Z,38.43
2022-08-14T08:49:43.207Z,39.36
2022-08-14T08:52:25.404Z,39.05
2022-08-14T08:55:01.116Z,38.88
2022-08-14T08:57:38.065Z,39.55
2022-08-14T09:00:24.195Z,41.29
2022-08-14T09:02:57.693Z,41.25
2022-08-14T09:05:27.492Z,41.04
2022-08-14T09:07:56.920Z,39.54
2022-08-14T09:10:27.072Z,37.30
2022-08-14T09:12:57.910Z,36.81
2022-08-14T09:15:42.560Z,38.79
2022-08-14T09:18:12.627Z,38.57
2022-08-14T09:20:51.352Z,39.20
2022-08-14T09:23:27.402Z,39.25
2022-08-14T09:26:05.103Z,38.31
2022-08-14T09:28:51.463Z,35.43
2022-08-14T09:31:21.507Z,33.33
2022-08-14T09:34:09.188Z,33.62
2022-08-14T09:37:05.101Z,36.34
2022-08-14T09:39:47.988Z,36.14
2022-08-14T09:42:33.218Z,37.64
2022-08-14T09:45:15.458Z,36.68
2022-08-14T09:47:49.080Z,38.52
2022-08-14T09:50:28.009Z,38.63
2022-08-14T09:52:59.621Z,36.70
2022-08-14T09:55:41.686Z,39.62
2022-08-14T09:58:20.080Z,37.97
2022-08-14T10:00:55.071Z,35.74
2022-08-14T10:03:34.267Z,37.21
2022-08-14T10:06:10.349Z,37.52
2022-08-14T10:08:45.385Z,36.26
2022-08-14T10:11:23.588Z,37.83
2022-08-14T10:13:55.983Z,39.64
2022-08-14T10:16:33.758Z,42.80
2022-08-14T10:19:09.644Z,42.47
2022-08-14T10:21:58.683Z,41.32
2022-08-14T10:24:36.688Z,40.19
2022-08-14T10:27:06.931Z,39.49
2022-08-14T10:29:38.531Z,39.04
2022-08-14T10:32:18.187Z,40.96
2022-08-14T10:35:06.897Z,41.41
2022-08-14T10:37:46.919Z,38.25
2022-08-14T10:40:43.495Z,38.04
2022-08-14T10:43:18.329Z,40.94
2022-08-14T10:45:59.859Z,42.30
2022-08-14T10:48:36.803Z,42.33
2022-08-14T10:51:08.485Z,41.39
2022-08-14T10:53:39.972Z,41.86
2022-08-14T10:56:22.074Z,42.10
2022-08-14T10:59:02.878Z,40.16
2022-08-14T11:01:40.823Z,38.04
2022-08-14T11:04:30.723Z,38.60
2022-08-14T11:06:59.841Z,40.22
2022-08-14T11:09:32.305Z,39.74
2022-08-14T11:12:35.078Z,38.40
2022-08-14T11:14:58.502Z,36.84
2022-08-14T11:17:32.179Z,35.49
2022-08-14T11:20:04.046Z,34.37
2022-08-14T11:23:03.081Z,35.30
2022-08-14T11:25:24.804Z,37.98
2022-08-14T11:28:11.036Z,39.88
2022-08-14T11:30:50.343Z,38.26
2022-08-14T11:33:24.526Z,36.67
2022-08-14T11:35:59.656Z,35.23
2022-08-14T11:38:29.324Z,35.15
2022-08-14T11:41:00.254Z,34.06
2022-08-14T11:43:30.702Z,33.29
2022-08-14T11:46:03.646Z,33.88
2022-08-14T11:49:03.551Z,32.67
2022-08-14T11:51:53.463Z,34.41
2022-08-14T11:54:34.395Z,35.91
2022-08-14T11:57:05.341Z,37.66
2022-08-14T11:59:34.272Z,37.84
2022-08-14T12:02:39.113Z,37.41
2022-08-14T12:05:03.967Z,36.35
2022-08-14T12:07:48.305Z,34.90
2022-08-14T12:10:26.938Z,34.40
2022-08-14T12:13:17.498Z,34.43
2022-08-14T12:15:51.462Z,32.78
2022-08-14T12:18:32.676Z,31.95
2022-08-14T12:21:15.728Z,31.96
2022-08-14T12:23:51.276Z,32.25
2022-08-14T12:26:40.150Z,32.05
2022-08-14T12:29:11.017Z,31.02
2022-08-14T12:31:44.729Z,31.69
2022-08-14T12:34:20.613Z,31.54
2022-08-14T12:37:04.233Z,31.38
2022-08-14T12:39:39.793Z,31.57
2022-08-14T12:42:11.846Z,31.30
2022-08-14T12:44:59.040Z,31.09
2022-08-14T12:47:32.555Z,31.15
2022-08-14T12:50:01.331Z,30.93
2022-08-14T12:52:45.326Z,31.06
2022-08-14T12:55:22.063Z,31.18
2022-08-14T12:57:55.299Z,31.40
2022-08-14T13:00:26.313Z,30.08
2022-08-14T13:02:56.898Z,30.46
2022-08-14T13:05:28.473Z,30.44
2022-08-14T13:07:59.266Z,30.12
2022-08-14T13:10:47.477Z,30.33
2022-08-14T13:13:22.096Z,30.56
2022-08-14T13:15:56.105Z,30.61
2022-08-14T13:18:28.026Z,30.32
2022-08-14T13:21:02.268Z,30.61
2022-08-14T13:23:36.443Z,31.01
2022-08-14T13:26:09.146Z,31.22
2022-08-14T13:29:02.031Z,31.34
2022-08-14T13:31:34.704Z,30.79
2022-08-14T13:34:04.474Z,30.95
2022-08-14T13:36:51.748Z,30.94
2022-08-14T13:39:24.640Z,30.75
2022-08-14T13:41:55.605Z,30.56
2022-08-14T13:44:28.837Z,29.82
2022-08-14T13:46:58.765Z,29.99
2022-08-14T13:49:29.163Z,30.23
2022-08-14T13:52:00.247Z,30.24
2022-08-14T13:54:32.885Z,29.86
2022-08-14T13:57:03.944Z,29.79
2022-08-14T13:59:37.372Z,30.17
2022-08-14T14:02:09.827Z,30.08
2022-08-14T14:04:42.197Z,29.68
2022-08-14T14:07:14.260Z,30.11
2022-08-14T14:09:52.998Z,30.40
2022-08-14T14:12:49.179Z,30.45
2022-08-14T14:15:17.721Z,30.25
2022-08-14T14:17:47.805Z,30.36
2022-08-14T14:20:34.581Z,29.49
2022-08-14T14:23:11.864Z,29.69
2022-08-14T14:25:48.458Z,29.81
2022-08-14T14:28:23.889Z,29.77
2022-08-14T14:30:57.271Z,29.54
2022-08-14T14:33:49.556Z,29.36
2022-08-14T14:36:21.876Z,29.10
2022-08-14T14:38:53.555Z,28.72
2022-08-14T14:41:23.751Z,29.08
2022-08-14T14:43:57.880Z,28.87
2022-08-14T14:46:36.755Z,28.79
2022-08-14T14:49:08.946Z,28.71
2022-08-14T14:51:43.430Z,28.07
2022-08-14T14:54:13.310Z,28.29
2022-08-14T14:56:52.256Z,28.65
2022-08-14T14:59:25.405Z,28.34
2022-08-14T15:02:00.689Z,28.77
2022-08-14T15:04:29.342Z,28.70
2022-08-14T15:06:57.895Z,28.82
2022-08-14T15:09:27.579Z,28.81
2022-08-14T15:11:57.807Z,28.36
2022-08-14T15:14:54.781Z,28.48
2022-08-14T15:17:17.283Z,28.49
2022-08-14T15:19:56.360Z,28.32
2022-08-14T15:22:29.055Z,28.16
2022-08-14T15:24:59.047Z,27.98
2022-08-14T15:27:29.478Z,27.69
2022-08-14T15:29:59.621Z,27.71
2022-08-14T15:32:29.217Z,27.87
2022-08-14T15:34:58.297Z,27.63
2022-08-14T15:37:32.626Z,28.08
2022-08-14T15:40:02.439Z,28.17
2022-08-14T15:42:38.101Z,27.85
2022-08-14T15:45:12.864Z,27.58
2022-08-14T15:47:43.378Z,27.26
2022-08-14T15:50:13.378Z,27.52
2022-08-14T15:52:45.032Z,27.22
2022-08-14T15:55:16.152Z,27.28
2022-08-14T15:58:02.128Z,27.39
2022-08-14T16:00:53.878Z,27.57
2022-08-14T16:03:27.597Z,27.71
2022-08-14T16:06:05.840Z,27.55
2022-08-14T16:08:40.151Z,27.10
2022-08-14T16:11:10.663Z,27.12
2022-08-14T16:13:43.488Z,27.02
2022-08-14T16:16:49.391Z,27.02
2022-08-14T16:19:09.943Z,26.90
2022-08-14T16:22:01.586Z,26.99
2022-08-14T16:25:02.207Z,27.26
2022-08-14T16:27:37.179Z,26.89
2022-08-14T16:30:24.803Z,27.05
2022-08-14T16:32:57.051Z,26.95
2022-08-14T16:35:42.697Z,27.09
2022-08-14T16:38:19.728Z,26.83
2022-08-14T16:41:23.255Z,26.71
2022-08-14T16:43:59.414Z,26.56
2022-08-14T16:46:31.424Z,26.72
2022-08-14T16:49:03.214Z,26.69
2022-08-14T16:51:36.497Z,26.71
2022-08-14T16:54:21.099Z,26.57
2022-08-14T16:57:13.810Z,26.18
2022-08-14T16:59:57.280Z,26.10
2022-08-14T17:02:36.672Z,26.04
2022-08-14T17:05:22.060Z,25.94
2022-08-14T17:08:31.455Z,26.19
2022-08-14T17:11:10.558Z,26.39
2022-08-14T17:13:59.738Z,26.40
2022-08-14T17:16:35.658Z,26.56
2022-08-14T17:19:05.730Z,26.47
2022-08-14T17:21:41.915Z,26.77
2022-08-14T17:24:57.755Z,26.30
2022-08-14T17:27:03.661Z,26.25
2022-08-14T17:29:34.573Z,26.41
2022-08-14T17:32:21.872Z,26.56
2022-08-14T17:34:57.697Z,26.25
2022-08-14T17:37:37.776Z,26.48
2022-08-14T17:40:15.934Z,26.16
2022-08-14T17:42:55.705Z,26.43
2022-08-14T17:45:46.803Z,26.22
2022-08-14T17:49:10.835Z,26.43
2022-08-14T17:51:23.752Z,26.26
2022-08-14T17:54:02.323Z,26.29
2022-08-14T17:56:38.730Z,26.15
2022-08-14T17:59:08.675Z,26.19
2022-08-14T18:01:46.448Z,26.02
2022-08-14T18:04:24.467Z,25.79
2022-08-14T18:07:16.774Z,25.56
2022-08-14T18:09:57.610Z,25.54
2022-08-14T18:12:36.935Z,25.36
2022-08-14T18:15:14.459Z,25.26
2022-08-14T18:17:52.742Z,25.13
2022-08-14T18:21:40.969Z,24.99
2022-08-14T18:23:14.323Z,24.76
2022-08-14T18:25:51.618Z,24.66
2022-08-14T18:28:51.967Z,24.26
2022-08-14T18:31:43.375Z,24.36
2022-08-14T18:34:31.741Z,24.25
2022-08-14T18:37:16.567Z,23.90
2022-08-14T18:39:51.688Z,23.90
2022-08-14T18:42:47.091Z,23.63
2022-08-14T18:45:18.915Z,23.41
2022-08-14T18:48:33.228Z,23.44
2022-08-14T18:51:15.125Z,23.21
2022-08-14T18:53:57.171Z,23.21
2022-08-14T18:56:58.407Z,23.36
2022-08-14T18:59:37.536Z,23.33
2022-08-14T19:02:43.421Z,23.18
2022-08-14T19:05:14.281Z,22.87
2022-08-14T19:07:48.162Z,23.02
2022-08-14T19:10:31.837Z,22.80
2022-08-14T19:13:11.927Z,22.85
2022-08-14T19:15:44.745Z,22.62
2022-08-14T19:18:26.194Z,22.46
2022-08-14T19:20:59.166Z,22.44
2022-08-14T19:23:42.095Z,22.35
2022-08-14T19:26:36.774Z,22.29
2022-08-14T19:29:21.136Z,22.12
2022-08-14T19:31:56.253Z,21.94
2022-08-14T19:34:47.958Z,21.57
2022-08-14T19:37:52.475Z,21.62
2022-08-14T19:40:33.961Z,21.69
2022-08-14T19:43:06.662Z,21.62
2022-08-14T19:45:38.432Z,21.62
2022-08-14T19:48:15.757Z,21.54
2022-08-14T19:50:47.082Z,21.53
2022-08-14T19:53:18.468Z,21.41
2022-08-14T19:55:59.644Z,21.31
2022-08-14T19:58:54.784Z,21.16
2022-08-14T20:01:37.283Z,21.25
2022-08-14T20:04:45.017Z,21.22
2022-08-14T20:07:01.594Z,20.82
2022-08-14T20:11:04.631Z,21.15
2022-08-14T20:12:36.618Z,20.67
2022-08-14T20:15:26.912Z,21.04
2022-08-14T20:18:46.016Z,20.64
2022-08-14T20:21:05.753Z,20.53
2022-08-14T20:23:37.956Z,20.61
2022-08-14T20:26:30.738Z,20.39
2022-08-14T20:29:04.588Z,20.43
2022-08-14T20:31:38.342Z,20.46
2022-08-14T20:34:24.615Z,20.29
2022-08-14T20:37:09.802Z,20.38
2022-08-14T20:39:45.122Z,20.32
2022-08-14T20:42:43.471Z,20.31
2022-08-14T20:45:23.660Z,20.31
2022-08-14T20:47:58.610Z,20.18
2022-08-14T20:50:32.005Z,20.19
2022-08-14T20:53:05.694Z,20.20
2022-08-14T20:55:41.571Z,19.98
2022-08-14T21:01:33.105Z,19.89
2022-08-14T21:04:12.033Z,19.73
2022-08-14T21:07:22.878Z,19.62
2022-08-14T21:10:03.039Z,19.81
2022-08-14T21:12:33.537Z,19.75
2022-08-14T21:15:03.974Z,19.56
2022-08-14T21:17:37.492Z,19.60
2022-08-14T21:20:25.626Z,19.56
2022-08-14T21:23:00.346Z,19.69
2022-08-14T21:25:31.848Z,19.62
2022-08-14T21:28:04.239Z,19.65
2022-08-14T21:30:51.537Z,19.65
2022-08-14T21:33:23.921Z,19.65
2022-08-14T21:35:55.038Z,19.20
2022-08-14T21:38:34.251Z,19.26
2022-08-14T21:41:43.066Z,19.44
2022-08-14T21:44:17.401Z,19.15
2022-08-14T21:46:49.791Z,19.49
2022-08-14T21:49:23.589Z,19.38
2022-08-14T21:51:58.831Z,19.06
2022-08-14T21:54:50.169Z,19.32
2022-08-14T21:57:55.883Z,19.02
2022-08-14T22:00:35.346Z,19.08
2022-08-14T22:03:04.527Z,19.06
2022-08-14T22:05:34.851Z,18.78
2022-08-14T22:08:07.522Z,18.96
2022-08-14T22:10:43.002Z,18.77
2022-08-14T22:13:17.289Z,19.13
2022-08-14T22:15:50.067Z,19.11
2022-08-14T22:18:21.007Z,18.84
2022-08-14T22:20:56.474Z,18.82
2022-08-14T22:23:27.172Z,18.84
2022-08-14T22:25:56.757Z,19.10
2022-08-14T22:28:32.484Z,18.89
2022-08-14T22:31:03.793Z,19.01
2022-08-14T22:33:40.363Z,18.93
2022-08-14T22:36:34.179Z,18.79
2022-08-14T22:39:10.965Z,18.69
2022-08-14T22:41:42.741Z,18.80
2022-08-14T22:44:15.201Z,18.83
2022-08-14T22:46:45.228Z,18.60
2022-08-14T22:49:15.467Z,18.73
2022-08-14T22:52:32.895Z,18.59
2022-08-14T22:54:58.737Z,18.57
2022-08-14T22:57:37.801Z,18.51
2022-08-14T23:00:16.578Z,18.49
2022-08-14T23:02:46.806Z,18.71
2022-08-14T23:05:16.470Z,18.27
2022-08-14T23:09:02.232Z,18.41
2022-08-14T23:10:55.692Z,18.50
2022-08-14T23:13:25.072Z,18.26
2022-08-14T23:15:55.348Z,18.26
2022-08-14T23:18:25.383Z,17.91
2022-08-14T23:20:59.225Z,17.78
2022-08-14T23:23:29.954Z,18.15
2022-08-14T23:26:46.883Z,18.16
2022-08-14T23:28:57.157Z,18.07
2022-08-14T23:31:36.183Z,18.08
2022-08-14T23:34:07.558Z,17.94
2022-08-14T23:36:52.726Z,17.68
2022-08-14T23:39:29.563Z,17.17
2022-08-14T23:42:04.563Z,17.57
2022-08-14T23:44:37.083Z,17.43
2022-08-14T23:47:11.755Z,17.72
2022-08-14T23:50:00.877Z,17.54
2022-08-14T23:53:06.218Z,17.47
2022-08-14T23:55:29.672Z,17.73
2022-08-14T23:57:59.279Z,17.59
